sensor_id;sensor_type;location;lat;lon;timestamp;P1;durP1;ratioP1;P2;durP2;ratioP2
38557;SDS011;24333;42.626;23.308;2023-09-12T00:02:06;6.85;;;1.58;;
38557;SDS011;24333;42.626;23.308;2023-09-12T00:04:31;5.50;;;1.80;;
38557;SDS011;24333;42.626;23.308;2023-09-12T00:06:57;8.13;;;2.10;;
38557;SDS011;24333;42.626;23.308;2023-09-12T00:09:22;5.22;;;1.60;;
38557;SDS011;24333;42.626;23.308;2023-09-12T00:11:48;3.10;;;1.55;;
38557;SDS011;24333;42.626;23.308;2023-09-12T00:14:16;4.28;;;1.60;;
38557;SDS011;24333;42.626;23.308;2023-09-12T00:16:43;3.10;;;1.88;;
38557;SDS011;24333;42.626;23.308;2023-09-12T00:19:08;4.28;;;1.55;;
38557;SDS011;24333;42.626;23.308;2023-09-12T00:21:34;11.00;;;1.73;;
38557;SDS011;24333;42.626;23.308;2023-09-12T00:23:59;3.17;;;1.75;;
38557;SDS011;24333;42.626;23.308;2023-09-12T00:26:24;4.55;;;1.65;;
38557;SDS011;24333;42.626;23.308;2023-09-12T00:28:50;5.47;;;1.77;;
38557;SDS011;24333;42.626;23.308;2023-09-12T00:31:15;2.90;;;1.58;;
38557;SDS011;24333;42.626;23.308;2023-09-12T00:33:40;2.45;;;1.50;;
38557;SDS011;24333;42.626;23.308;2023-09-12T00:36:06;4.45;;;1.55;;
38557;SDS011;24333;42.626;23.308;2023-09-12T00:38:31;4.20;;;2.08;;
38557;SDS011;24333;42.626;23.308;2023-09-12T00:40:57;4.30;;;2.08;;
38557;SDS011;24333;42.626;23.308;2023-09-12T00:43:22;4.40;;;1.63;;
38557;SDS011;24333;42.626;23.308;2023-09-12T00:45:48;5.63;;;2.05;;
38557;SDS011;24333;42.626;23.308;2023-09-12T00:48:13;3.40;;;1.70;;
38557;SDS011;24333;42.626;23.308;2023-09-12T00:50:42;5.90;;;1.77;;
38557;SDS011;24333;42.626;23.308;2023-09-12T00:53:08;5.20;;;1.90;;
38557;SDS011;24333;42.626;23.308;2023-09-12T00:55:34;7.60;;;1.98;;
38557;SDS011;24333;42.626;23.308;2023-09-12T00:58:03;2.47;;;1.95;;
38557;SDS011;24333;42.626;23.308;2023-09-12T01:00:28;5.50;;;1.75;;
38557;SDS011;24333;42.626;23.308;2023-09-12T01:02:54;10.93;;;2.08;;
38557;SDS011;24333;42.626;23.308;2023-09-12T01:05:24;5.07;;;1.65;;
38557;SDS011;24333;42.626;23.308;2023-09-12T01:07:51;5.30;;;1.98;;
38557;SDS011;24333;42.626;23.308;2023-09-12T01:10:18;6.18;;;1.98;;
38557;SDS011;24333;42.626;23.308;2023-09-12T01:12:44;11.02;;;1.98;;
38557;SDS011;24333;42.626;23.308;2023-09-12T01:15:09;8.48;;;1.95;;
38557;SDS011;24333;42.626;23.308;2023-09-12T01:17:39;5.38;;;1.70;;
38557;SDS011;24333;42.626;23.308;2023-09-12T01:20:10;2.13;;;1.15;;
38557;SDS011;24333;42.626;23.308;2023-09-12T01:22:56;3.30;;;1.90;;
38557;SDS011;24333;42.626;23.308;2023-09-12T01:28:07;3.70;;;1.77;;
38557;SDS011;24333;42.626;23.308;2023-09-12T01:30:34;3.08;;;1.70;;
38557;SDS011;24333;42.626;23.308;2023-09-12T01:33:01;3.85;;;1.55;;
38557;SDS011;24333;42.626;23.308;2023-09-12T01:35:27;3.95;;;1.52;;
38557;SDS011;24333;42.626;23.308;2023-09-12T04:25:19;2.88;;;1.63;;
38557;SDS011;24333;42.626;23.308;2023-09-12T04:27:45;9.52;;;2.22;;
38557;SDS011;24333;42.626;23.308;2023-09-12T04:30:11;5.05;;;2.13;;
38557;SDS011;24333;42.626;23.308;2023-09-12T04:32:37;6.68;;;1.75;;
38557;SDS011;24333;42.626;23.308;2023-09-12T04:35:02;6.53;;;1.83;;
38557;SDS011;24333;42.626;23.308;2023-09-12T04:42:57;5.63;;;1.80;;
38557;SDS011;24333;42.626;23.308;2023-09-12T04:45:38;6.68;;;2.20;;
38557;SDS011;24333;42.626;23.308;2023-09-12T04:48:04;3.75;;;2.35;;
38557;SDS011;24333;42.626;23.308;2023-09-12T08:11:49;15.52;;;3.47;;
38557;SDS011;24333;42.626;23.308;2023-09-12T08:14:14;12.70;;;4.05;;
38557;SDS011;24333;42.626;23.308;2023-09-12T08:16:41;6.30;;;2.88;;
38557;SDS011;24333;42.626;23.308;2023-09-12T08:19:06;12.50;;;3.08;;
38557;SDS011;24333;42.626;23.308;2023-09-12T08:21:45;8.63;;;3.25;;
38557;SDS011;24333;42.626;23.308;2023-09-12T08:24:11;5.32;;;2.95;;
38557;SDS011;24333;42.626;23.308;2023-09-12T08:26:36;9.32;;;3.08;;
38557;SDS011;24333;42.626;23.308;2023-09-12T08:29:02;11.00;;;2.80;;
38557;SDS011;24333;42.626;23.308;2023-09-12T08:31:27;11.60;;;3.30;;
38557;SDS011;24333;42.626;23.308;2023-09-12T08:34:10;5.03;;;2.42;;
38557;SDS011;24333;42.626;23.308;2023-09-12T08:36:37;7.85;;;2.75;;
38557;SDS011;24333;42.626;23.308;2023-09-12T08:39:03;9.82;;;2.50;;
38557;SDS011;24333;42.626;23.308;2023-09-12T08:41:29;4.82;;;2.70;;
38557;SDS011;24333;42.626;23.308;2023-09-12T08:43:58;9.07;;;2.33;;
38557;SDS011;24333;42.626;23.308;2023-09-12T08:46:23;7.82;;;2.25;;
38557;SDS011;24333;42.626;23.308;2023-09-12T08:48:50;7.97;;;2.30;;
38557;SDS011;24333;42.626;23.308;2023-09-12T08:51:15;6.22;;;1.90;;
38557;SDS011;24333;42.626;23.308;2023-09-12T08:53:41;7.70;;;2.33;;
38557;SDS011;24333;42.626;23.308;2023-09-12T08:56:16;6.57;;;1.80;;
38557;SDS011;24333;42.626;23.308;2023-09-12T08:58:59;3.40;;;1.85;;
38557;SDS011;24333;42.626;23.308;2023-09-12T09:01:32;8.77;;;2.13;;
38557;SDS011;24333;42.626;23.308;2023-09-12T09:04:23;6.57;;;2.17;;
38557;SDS011;24333;42.626;23.308;2023-09-12T09:06:51;11.43;;;2.30;;
38557;SDS011;24333;42.626;23.308;2023-09-12T09:09:19;3.92;;;1.95;;
38557;SDS011;24333;42.626;23.308;2023-09-12T09:14:42;2.90;;;1.92;;
38557;SDS011;24333;42.626;23.308;2023-09-12T09:17:08;5.72;;;2.10;;
38557;SDS011;24333;42.626;23.308;2023-09-12T09:19:43;8.05;;;1.95;;
38557;SDS011;24333;42.626;23.308;2023-09-12T09:28:25;5.60;;;2.10;;
38557;SDS011;24333;42.626;23.308;2023-09-12T09:30:51;4.57;;;2.15;;
38557;SDS011;24333;42.626;23.308;2023-09-12T09:33:20;4.78;;;1.85;;
38557;SDS011;24333;42.626;23.308;2023-09-12T09:35:46;5.20;;;1.88;;
38557;SDS011;24333;42.626;23.308;2023-09-12T09:38:13;4.57;;;1.98;;
38557;SDS011;24333;42.626;23.308;2023-09-12T09:43:31;6.35;;;2.15;;
38557;SDS011;24333;42.626;23.308;2023-09-12T09:45:58;6.18;;;2.45;;
38557;SDS011;24333;42.626;23.308;2023-09-12T09:48:26;7.38;;;2.53;;
38557;SDS011;24333;42.626;23.308;2023-09-12T09:57:31;6.63;;;2.35;;
38557;SDS011;24333;42.626;23.308;2023-09-12T10:00:03;7.10;;;2.03;;
38557;SDS011;24333;42.626;23.308;2023-09-12T10:02:33;8.27;;;2.15;;
38557;SDS011;24333;42.626;23.308;2023-09-12T10:05:01;4.07;;;2.22;;
38557;SDS011;24333;42.626;23.308;2023-09-12T10:07:31;5.65;;;2.33;;
38557;SDS011;24333;42.626;23.308;2023-09-12T10:09:58;4.00;;;2.38;;
38557;SDS011;24333;42.626;23.308;2023-09-12T10:12:29;3.95;;;1.88;;
38557;SDS011;24333;42.626;23.308;2023-09-12T10:14:59;11.55;;;2.30;;
38557;SDS011;24333;42.626;23.308;2023-09-12T10:17:26;6.07;;;1.90;;
38557;SDS011;24333;42.626;23.308;2023-09-12T10:20:02;6.18;;;1.95;;
38557;SDS011;24333;42.626;23.308;2023-09-12T10:22:37;6.30;;;2.23;;
38557;SDS011;24333;42.626;23.308;2023-09-12T10:25:11;4.07;;;1.50;;
38557;SDS011;24333;42.626;23.308;2023-09-12T10:27:38;6.68;;;2.30;;
38557;SDS011;24333;42.626;23.308;2023-09-12T10:30:03;5.72;;;1.60;;
38557;SDS011;24333;42.626;23.308;2023-09-12T10:32:30;7.80;;;2.40;;
38557;SDS011;24333;42.626;23.308;2023-09-12T10:34:58;3.80;;;1.60;;
38557;SDS011;24333;42.626;23.308;2023-09-12T10:37:25;4.72;;;2.20;;
38557;SDS011;24333;42.626;23.308;2023-09-12T10:39:54;8.90;;;1.90;;
38557;SDS011;24333;42.626;23.308;2023-09-12T10:42:30;4.72;;;2.15;;
38557;SDS011;24333;42.626;23.308;2023-09-12T10:44:58;4.65;;;1.63;;
38557;SDS011;24333;42.626;23.308;2023-09-12T10:47:25;3.55;;;1.50;;
38557;SDS011;24333;42.626;23.308;2023-09-12T10:49:52;8.00;;;2.20;;
38557;SDS011;24333;42.626;23.308;2023-09-12T10:52:24;5.32;;;1.85;;
38557;SDS011;24333;42.626;23.308;2023-09-12T10:54:50;7.53;;;2.20;;
38557;SDS011;24333;42.626;23.308;2023-09-12T10:57:16;5.03;;;1.60;;
38557;SDS011;24333;42.626;23.308;2023-09-12T11:02:36;3.55;;;1.80;;
38557;SDS011;24333;42.626;23.308;2023-09-12T11:05:04;3.47;;;2.00;;
38557;SDS011;24333;42.626;23.308;2023-09-12T11:07:55;2.58;;;1.40;;
38557;SDS011;24333;42.626;23.308;2023-09-12T11:10:22;3.40;;;1.90;;
38557;SDS011;24333;42.626;23.308;2023-09-12T11:12:51;3.33;;;1.50;;
38557;SDS011;24333;42.626;23.308;2023-09-12T11:15:18;4.18;;;1.73;;
38557;SDS011;24333;42.626;23.308;2023-09-12T11:17:49;3.10;;;1.33;;
38557;SDS011;24333;42.626;23.308;2023-09-12T11:20:24;5.00;;;1.52;;
38557;SDS011;24333;42.626;23.308;2023-09-12T11:22:50;9.80;;;1.83;;
38557;SDS011;24333;42.626;23.308;2023-09-12T11:25:19;2.67;;;1.40;;
38557;SDS011;24333;42.626;23.308;2023-09-12T11:30:20;8.75;;;1.88;;
38557;SDS011;24333;42.626;23.308;2023-09-12T11:32:47;3.45;;;1.67;;
38557;SDS011;24333;42.626;23.308;2023-09-12T11:35:15;3.25;;;1.58;;
38557;SDS011;24333;42.626;23.308;2023-09-12T11:37:51;5.03;;;1.67;;
38557;SDS011;24333;42.626;23.308;2023-09-12T11:40:40;3.97;;;1.92;;
38557;SDS011;24333;42.626;23.308;2023-09-12T11:43:08;3.33;;;1.77;;
38557;SDS011;24333;42.626;23.308;2023-09-12T11:45:44;3.10;;;1.52;;
38557;SDS011;24333;42.626;23.308;2023-09-12T11:48:10;5.90;;;1.67;;
38557;SDS011;24333;42.626;23.308;2023-09-12T11:50:35;4.07;;;1.30;;
38557;SDS011;24333;42.626;23.308;2023-09-12T11:53:04;2.97;;;1.55;;
38557;SDS011;24333;42.626;23.308;2023-09-12T11:55:36;4.35;;;1.52;;
38557;SDS011;24333;42.626;23.308;2023-09-12T11:58:07;4.82;;;1.60;;
38557;SDS011;24333;42.626;23.308;2023-09-12T12:00:33;2.53;;;1.60;;
38557;SDS011;24333;42.626;23.308;2023-09-12T12:02:58;3.08;;;1.70;;
38557;SDS011;24333;42.626;23.308;2023-09-12T12:05:24;3.00;;;1.38;;
38557;SDS011;24333;42.626;23.308;2023-09-12T12:07:49;6.00;;;1.67;;
38557;SDS011;24333;42.626;23.308;2023-09-12T12:10:18;3.95;;;1.65;;
38557;SDS011;24333;42.626;23.308;2023-09-12T12:12:44;2.70;;;1.30;;
38557;SDS011;24333;42.626;23.308;2023-09-12T12:15:11;2.58;;;1.77;;
38557;SDS011;24333;42.626;23.308;2023-09-12T12:17:37;2.72;;;1.60;;
38557;SDS011;24333;42.626;23.308;2023-09-12T12:20:06;4.60;;;1.55;;
38557;SDS011;24333;42.626;23.308;2023-09-12T12:22:39;6.10;;;1.60;;
38557;SDS011;24333;42.626;23.308;2023-09-12T14:46:13;4.75;;;2.00;;
38557;SDS011;24333;42.626;23.308;2023-09-12T14:48:39;7.47;;;1.80;;
38557;SDS011;24333;42.626;23.308;2023-09-12T14:51:17;3.40;;;1.80;;
38557;SDS011;24333;42.626;23.308;2023-09-12T14:53:47;7.70;;;1.90;;
38557;SDS011;24333;42.626;23.308;2023-09-12T14:56:15;8.15;;;2.38;;
38557;SDS011;24333;42.626;23.308;2023-09-12T14:58:44;7.32;;;2.22;;
38557;SDS011;24333;42.626;23.308;2023-09-12T15:01:09;6.43;;;2.30;;
38557;SDS011;24333;42.626;23.308;2023-09-12T15:03:35;4.70;;;2.28;;
38557;SDS011;24333;42.626;23.308;2023-09-12T15:06:04;7.15;;;2.40;;
38557;SDS011;24333;42.626;23.308;2023-09-12T15:08:31;6.05;;;2.65;;
38557;SDS011;24333;42.626;23.308;2023-09-12T15:10:57;8.43;;;2.22;;
38557;SDS011;24333;42.626;23.308;2023-09-12T15:13:25;7.72;;;2.60;;
38557;SDS011;24333;42.626;23.308;2023-09-12T16:33:56;6.88;;;2.60;;
38557;SDS011;24333;42.626;23.308;2023-09-12T16:36:22;4.68;;;1.77;;
38557;SDS011;24333;42.626;23.308;2023-09-12T16:38:48;4.28;;;2.08;;
38557;SDS011;24333;42.626;23.308;2023-09-12T16:41:15;6.03;;;2.30;;
38557;SDS011;24333;42.626;23.308;2023-09-12T16:43:40;12.50;;;3.60;;
38557;SDS011;24333;42.626;23.308;2023-09-12T16:46:06;5.78;;;2.92;;
38557;SDS011;24333;42.626;23.308;2023-09-12T16:48:32;5.63;;;2.42;;
38557;SDS011;24333;42.626;23.308;2023-09-12T16:50:59;5.95;;;2.13;;
38557;SDS011;24333;42.626;23.308;2023-09-12T16:53:24;4.90;;;2.50;;
38557;SDS011;24333;42.626;23.308;2023-09-12T16:55:50;6.05;;;2.30;;
38557;SDS011;24333;42.626;23.308;2023-09-12T16:58:17;7.68;;;1.92;;
38557;SDS011;24333;42.626;23.308;2023-09-12T17:00:42;3.97;;;1.33;;
38557;SDS011;24333;42.626;23.308;2023-09-12T17:03:09;2.70;;;1.40;;
38557;SDS011;24333;42.626;23.308;2023-09-12T17:05:35;6.05;;;2.15;;
38557;SDS011;24333;42.626;23.308;2023-09-12T17:08:00;6.80;;;2.00;;
38557;SDS011;24333;42.626;23.308;2023-09-12T17:10:26;3.65;;;1.65;;
38557;SDS011;24333;42.626;23.308;2023-09-12T17:12:52;3.85;;;1.75;;
38557;SDS011;24333;42.626;23.308;2023-09-12T17:15:18;5.00;;;1.83;;
38557;SDS011;24333;42.626;23.308;2023-09-12T17:17:45;2.92;;;1.80;;
38557;SDS011;24333;42.626;23.308;2023-09-12T17:20:12;3.58;;;1.50;;
38557;SDS011;24333;42.626;23.308;2023-09-12T17:22:41;3.63;;;1.52;;
38557;SDS011;24333;42.626;23.308;2023-09-12T17:25:07;5.03;;;1.50;;
38557;SDS011;24333;42.626;23.308;2023-09-12T17:27:34;4.32;;;1.50;;
38557;SDS011;24333;42.626;23.308;2023-09-12T17:29:59;5.90;;;2.00;;
38557;SDS011;24333;42.626;23.308;2023-09-12T17:32:26;5.43;;;1.75;;
38557;SDS011;24333;42.626;23.308;2023-09-12T17:34:53;3.35;;;1.35;;
38557;SDS011;24333;42.626;23.308;2023-09-12T17:37:20;3.33;;;1.38;;
38557;SDS011;24333;42.626;23.308;2023-09-12T17:39:48;5.03;;;1.73;;
38557;SDS011;24333;42.626;23.308;2023-09-12T17:42:16;3.40;;;1.52;;
38557;SDS011;24333;42.626;23.308;2023-09-12T17:44:42;3.72;;;1.70;;
38557;SDS011;24333;42.626;23.308;2023-09-12T17:47:08;5.78;;;1.58;;
38557;SDS011;24333;42.626;23.308;2023-09-12T17:49:34;5.25;;;1.52;;
38557;SDS011;24333;42.626;23.308;2023-09-12T17:52:00;3.58;;;1.42;;
38557;SDS011;24333;42.626;23.308;2023-09-12T17:54:26;7.45;;;1.88;;
38557;SDS011;24333;42.626;23.308;2023-09-12T17:56:52;3.42;;;1.60;;
38557;SDS011;24333;42.626;23.308;2023-09-12T17:59:17;6.13;;;1.90;;
38557;SDS011;24333;42.626;23.308;2023-09-12T18:01:43;8.90;;;2.30;;
38557;SDS011;24333;42.626;23.308;2023-09-12T18:04:08;5.35;;;2.08;;
38557;SDS011;24333;42.626;23.308;2023-09-12T18:06:35;8.85;;;1.83;;
38557;SDS011;24333;42.626;23.308;2023-09-12T18:09:01;5.55;;;2.55;;
38557;SDS011;24333;42.626;23.308;2023-09-12T18:11:28;5.53;;;2.05;;
38557;SDS011;24333;42.626;23.308;2023-09-12T18:13:53;3.90;;;2.15;;
38557;SDS011;24333;42.626;23.308;2023-09-12T18:16:19;5.40;;;2.47;;
38557;SDS011;24333;42.626;23.308;2023-09-12T18:18:44;7.53;;;2.50;;
38557;SDS011;24333;42.626;23.308;2023-09-12T18:21:10;8.95;;;2.83;;
38557;SDS011;24333;42.626;23.308;2023-09-12T18:23:35;6.18;;;2.60;;
38557;SDS011;24333;42.626;23.308;2023-09-12T18:26:04;5.05;;;2.28;;
38557;SDS011;24333;42.626;23.308;2023-09-12T18:31:15;3.72;;;1.83;;
38557;SDS011;24333;42.626;23.308;2023-09-12T18:33:41;3.50;;;1.38;;
38557;SDS011;24333;42.626;23.308;2023-09-12T18:36:08;3.47;;;1.70;;
38557;SDS011;24333;42.626;23.308;2023-09-12T18:38:38;3.55;;;1.88;;
38557;SDS011;24333;42.626;23.308;2023-09-12T18:41:05;3.60;;;1.85;;
38557;SDS011;24333;42.626;23.308;2023-09-12T18:43:31;3.65;;;1.98;;
38557;SDS011;24333;42.626;23.308;2023-09-12T18:45:57;5.72;;;1.77;;
38557;SDS011;24333;42.626;23.308;2023-09-12T18:48:23;2.80;;;1.50;;
38557;SDS011;24333;42.626;23.308;2023-09-12T18:50:49;12.38;;;1.88;;
38557;SDS011;24333;42.626;23.308;2023-09-12T18:53:16;11.43;;;1.63;;
38557;SDS011;24333;42.626;23.308;2023-09-12T18:55:42;7.50;;;1.40;;
38557;SDS011;24333;42.626;23.308;2023-09-12T18:58:09;4.78;;;1.75;;
38557;SDS011;24333;42.626;23.308;2023-09-12T19:00:36;6.28;;;2.58;;
38557;SDS011;24333;42.626;23.308;2023-09-12T19:03:16;7.80;;;2.70;;
38557;SDS011;24333;42.626;23.308;2023-09-12T19:05:43;6.03;;;1.92;;
38557;SDS011;24333;42.626;23.308;2023-09-12T19:08:09;10.30;;;3.08;;
38557;SDS011;24333;42.626;23.308;2023-09-12T19:10:35;8.93;;;3.13;;
38557;SDS011;24333;42.626;23.308;2023-09-12T19:13:00;5.05;;;2.40;;
38557;SDS011;24333;42.626;23.308;2023-09-12T19:15:29;3.25;;;1.90;;
38557;SDS011;24333;42.626;23.308;2023-09-12T19:17:55;5.18;;;1.85;;
38557;SDS011;24333;42.626;23.308;2023-09-12T19:20:21;5.25;;;2.38;;
38557;SDS011;24333;42.626;23.308;2023-09-12T19:22:49;3.97;;;1.98;;
38557;SDS011;24333;42.626;23.308;2023-09-12T19:25:17;6.82;;;1.85;;
38557;SDS011;24333;42.626;23.308;2023-09-12T19:27:43;7.18;;;1.80;;
38557;SDS011;24333;42.626;23.308;2023-09-12T19:30:36;5.75;;;1.50;;
38557;SDS011;24333;42.626;23.308;2023-09-12T19:33:11;4.30;;;1.55;;
38557;SDS011;24333;42.626;23.308;2023-09-12T19:35:39;7.30;;;1.50;;
38557;SDS011;24333;42.626;23.308;2023-09-12T19:38:20;3.55;;;1.67;;
38557;SDS011;24333;42.626;23.308;2023-09-12T19:45:36;5.45;;;2.20;;
38557;SDS011;24333;42.626;23.308;2023-09-12T19:48:04;4.78;;;3.05;;
38557;SDS011;24333;42.626;23.308;2023-09-12T19:50:34;3.28;;;1.60;;
38557;SDS011;24333;42.626;23.308;2023-09-12T19:53:00;2.75;;;1.40;;
38557;SDS011;24333;42.626;23.308;2023-09-12T19:55:25;4.60;;;1.50;;
38557;SDS011;24333;42.626;23.308;2023-09-12T19:57:51;4.07;;;1.83;;
38557;SDS011;24333;42.626;23.308;2023-09-12T20:00:16;3.75;;;1.60;;
38557;SDS011;24333;42.626;23.308;2023-09-12T20:02:42;7.80;;;1.42;;
38557;SDS011;24333;42.626;23.308;2023-09-12T20:05:09;3.92;;;1.20;;
38557;SDS011;24333;42.626;23.308;2023-09-12T20:07:34;4.32;;;1.35;;
38557;SDS011;24333;42.626;23.308;2023-09-12T20:10:01;3.35;;;1.13;;
38557;SDS011;24333;42.626;23.308;2023-09-12T20:12:27;3.70;;;1.30;;
38557;SDS011;24333;42.626;23.308;2023-09-12T20:14:54;1.85;;;0.80;;
38557;SDS011;24333;42.626;23.308;2023-09-12T20:17:25;6.78;;;1.45;;
38557;SDS011;24333;42.626;23.308;2023-09-12T20:19:51;4.38;;;1.40;;
38557;SDS011;24333;42.626;23.308;2023-09-12T20:22:17;7.25;;;1.33;;
38557;SDS011;24333;42.626;23.308;2023-09-12T20:24:43;2.53;;;1.13;;
38557;SDS011;24333;42.626;23.308;2023-09-12T20:27:09;7.22;;;1.20;;
